Time;durP1;ratioP1;P1;durP2;ratioP2;P2;SDS_P1;SDS_P2;PMS_P1;PMS_P2;Temp;Humidity;BMP_temperature;BMP_pressure;BME280_temperature;BME280_humidity;BME280_pressure;Samples;Min_cycle;Max_cycle;Signal;HPM_P1;HPM_P2
2022/03/13 06:42:52;;;;;;;19.83;10.68;;;;;;;1.10;60.36;102325.00;5023651;24;20027;-83
2022/03/13 07:29:16;;;;;;;15.18;8.20;;;;;;;3.29;53.25;102370.81;5640103;24;20055;-84
2022/03/13 07:31:41;;;;;;;15.68;8.43;;;;;;;3.19;52.75;102316.59;4826820;29;20022;-83
2022/03/13 07:34:06;;;;;;;24.00;13.02;;;;;;;2.06;52.73;102118.50;5147408;24;20059;-82
2022/03/13 07:36:34;;;;;;;14.48;7.15;;;;;;;2.41;52.05;102183.28;4801818;29;20128;-81
2022/03/13 07:39:01;;;;;;;29.60;15.93;;;;;;;3.80;52.20;102375.00;4788470;30;20035;-81
2022/03/13 07:41:26;;;;;;;21.95;11.50;;;;;;;3.73;51.49;102324.03;4785688;30;20035;-81
2022/03/13 07:43:52;;;;;;;21.45;13.20;;;;;;;4.14;51.92;102364.44;4785360;30;20091;-81
2022/03/13 07:46:17;;;;;;;15.20;8.15;;;;;;;4.23;50.75;102358.41;4802691;29;20523;-81
2022/03/13 07:48:44;;;;;;;13.85;7.38;;;;;;;4.36;50.38;102356.47;4801916;29;20055;-81
2022/03/13 07:51:13;;;;;;;12.45;7.18;;;;;;;4.51;50.54;102369.56;4799621;29;20034;-80
2022/03/13 07:53:39;;;;;;;12.35;7.20;;;;;;;4.33;48.98;102343.38;4800493;29;20055;-81
2022/03/13 07:56:05;;;;;;;13.18;7.38;;;;;;;4.53;48.79;102368.47;4783242;30;20104;-82
2022/03/13 07:58:31;;;;;;;14.13;7.25;;;;;;;4.65;49.32;102348.00;4780784;30;20035;-81
2022/03/13 08:00:57;;;;;;;14.38;7.00;;;;;;;4.82;49.09;102357.31;4786788;29;20035;-80
2022/03/13 08:03:28;;;;;;;14.85;7.47;;;;;;;4.85;48.45;102354.41;4781759;30;20049;-81
2022/03/13 08:05:54;;;;;;;14.00;7.20;;;;;;;4.98;48.57;102363.09;4771521;30;20035;-81
2022/03/13 09:20:00;;;;;;;11.93;6.82;;;;;;;6.89;38.53;102106.94;5497403;24;19925;-83
2022/03/13 09:22:28;;;;;;;15.23;6.43;;;;;;;8.46;38.14;102348.41;4793504;29;20048;-83
2022/03/13 09:32:40;;;;;;;11.85;6.45;;;;;;;8.70;36.82;102316.50;5238696;24;20063;-84
2022/03/13 09:35:06;;;;;;;12.00;6.00;;;;;;;8.83;36.16;102321.53;4811606;29;20031;-83
2022/03/13 09:37:31;;;;;;;13.32;5.55;;;;;;;9.05;35.81;102340.91;5439015;24;20066;-83
2022/03/13 09:39:57;;;;;;;9.20;5.28;;;;;;;8.88;36.60;102291.56;4831905;29;20022;-83
2022/03/13 09:52:43;;;;;;;7.85;4.75;;;;;;;8.49;34.61;102167.53;5459404;24;19909;-83
2022/03/13 10:02:55;;;;;;;11.93;4.95;;;;;;;9.78;34.58;102352.31;5241545;24;20110;-83
2022/03/13 10:07:56;;;;;;;7.63;4.88;;;;;;;9.87;34.30;102337.13;5622084;24;20749;-83
2022/03/13 10:23:22;;;;;;;10.00;4.88;;;;;;;9.22;33.46;102146.69;5217638;24;19909;-82
2022/03/13 10:25:49;;;;;;;7.40;4.10;;;;;;;8.82;32.79;102083.63;4830343;29;20060;-83
2022/03/13 10:28:31;;;;;;;6.97;4.10;;;;;;;10.39;32.53;102326.34;4835803;29;20059;-84
2022/03/13 10:30:59;;;;;;;7.70;4.10;;;;;;;10.49;32.02;102329.75;4829606;29;20071;-83
2022/03/13 10:33:35;;;;;;;6.85;4.38;;;;;;;10.41;32.23;102307.38;4831697;29;20011;-83
2022/03/13 10:38:37;;;;;;;9.43;4.57;;;;;;;10.67;32.23;102310.84;5140501;24;19954;-79
2022/03/13 10:41:08;;;;;;;8.82;4.20;;;;;;;10.76;31.78;102322.47;4789261;30;20035;-80
2022/03/13 10:43:40;;;;;;;7.40;3.83;;;;;;;10.78;31.69;102305.16;4823502;29;21061;-82
2022/03/13 10:46:06;;;;;;;6.25;4.10;;;;;;;10.98;31.93;102323.72;4799521;29;20027;-81
2022/03/13 10:48:36;;;;;;;7.85;3.90;;;;;;;10.98;30.91;102318.31;4805377;29;20050;-80
2022/03/13 10:51:04;;;;;;;8.70;4.00;;;;;;;11.10;30.81;102326.97;4817267;29;20015;-81
2022/03/13 10:53:30;;;;;;;9.25;3.90;;;;;;;11.15;30.84;102321.91;4821025;29;20047;-82
2022/03/13 10:56:03;;;;;;;8.75;3.38;;;;;;;11.24;30.60;102323.59;4798086;29;20454;-79
2022/03/13 10:58:35;;;;;;;6.15;3.25;;;;;;;11.25;30.15;102326.13;4823867;29;20546;-80
2022/03/13 11:01:10;;;;;;;6.53;3.33;;;;;;;11.19;30.23;102307.94;4801158;29;20073;-81
2022/03/13 11:03:47;;;;;;;6.07;3.58;;;;;;;11.37;30.39;102320.41;4809707;29;20429;-80
2022/03/13 11:06:12;;;;;;;4.95;3.10;;;;;;;11.32;29.52;102304.72;4801709;29;20040;-80
2022/03/13 11:08:38;;;;;;;5.93;3.08;;;;;;;11.41;29.85;102297.50;4790288;29;20054;-81
2022/03/13 11:11:04;;;;;;;6.20;3.33;;;;;;;11.48;29.72;102298.50;4772642;29;20035;-79
2022/03/13 11:13:32;;;;;;;7.47;3.00;;;;;;;11.60;28.85;102305.25;4809903;29;20043;-78
2022/03/13 11:15:57;;;;;;;7.05;3.38;;;;;;;11.66;28.55;102291.09;4815535;29;20042;-82
2022/03/13 11:18:30;;;;;;;9.20;3.05;;;;;;;11.84;28.71;102311.66;4809571;29;20023;-83
2022/03/13 11:23:33;;;;;;;7.13;2.90;;;;;;;11.67;28.95;102290.09;5126327;24;20055;-84
2022/03/13 13:57:23;;;;;;;6.68;3.15;;;;;;;12.74;29.36;102287.09;4968676;24;19939;-84
2022/03/13 14:40:00;;;;;;;8.48;4.45;;;;;;;10.86;32.41;102079.97;5759198;24;21112;-80
2022/03/13 14:42:25;;;;;;;7.45;4.35;;;;;;;12.04;32.40;102269.81;4843604;29;20031;-80
2022/03/13 14:55:14;;;;;;;8.70;4.10;;;;;;;10.42;32.56;102056.09;5150494;24;20062;-81
2022/03/13 15:18:21;;;;;;;7.88;4.60;;;;;;;9.82;33.57;101988.09;5602593;24;20280;-80
2022/03/13 15:20:47;;;;;;;11.07;4.88;;;;;;;10.16;33.64;102040.91;4826500;29;20095;-82
2022/03/13 15:23:14;;;;;;;7.90;4.60;;;;;;;10.89;33.78;102166.66;4814264;29;20096;-84
2022/03/13 15:25:40;;;;;;;8.55;4.35;;;;;;;10.28;33.78;102068.38;4975141;24;20026;-75
2022/03/13 15:30:40;;;;;;;8.55;4.43;;;;;;;11.27;34.30;102245.97;5446433;24;20051;-83
2022/03/13 15:33:06;;;;;;;8.00;4.75;;;;;;;11.28;34.39;102247.63;4797511;29;20079;-84
2022/03/13 15:35:31;;;;;;;8.27;4.22;;;;;;;11.23;33.88;102247.31;4810050;29;20469;-83
2022/03/13 15:37:57;;;;;;;8.80;4.50;;;;;;;11.23;34.29;102260.78;4764779;29;20015;-82
2022/03/13 15:40:23;;;;;;;8.23;4.35;;;;;;;11.19;34.82;102251.38;4815187;29;20023;-83
2022/03/13 15:42:49;;;;;;;7.35;4.10;;;;;;;11.19;34.00;102258.59;4830717;29;20029;-83
2022/03/13 15:53:41;;;;;;;9.10;4.65;;;;;;;9.94;34.55;102084.56;5070995;24;20046;-82
2022/03/13 16:19:23;;;;;;;6.90;3.50;;;;;;;10.90;32.06;102242.91;5684410;24;19954;-80
2022/03/13 16:21:49;;;;;;;6.93;3.85;;;;;;;10.92;31.35;102251.66;4804668;29;20015;-82
2022/03/13 16:24:14;;;;;;;7.63;3.45;;;;;;;10.88;31.08;102234.16;4810438;29;20086;-83
2022/03/13 16:34:25;;;;;;;5.60;3.45;;;;;;;10.82;30.11;102257.19;5461458;24;20060;-83
2022/03/13 16:36:51;;;;;;;7.85;4.20;;;;;;;10.54;29.01;102227.03;4847497;29;20070;-84
2022/03/13 16:44:26;;;;;;;7.47;4.38;;;;;;;10.08;28.01;102140.41;5491553;24;20062;-79
2022/03/13 16:49:27;;;;;;;7.10;3.75;;;;;;;10.75;28.35;102235.47;5401322;24;20055;-83
2022/03/13 16:54:28;;;;;;;9.23;4.72;;;;;;;9.43;27.99;102028.09;4896493;24;20054;-82
2022/03/13 17:07:15;;;;;;;10.18;5.75;;;;;;;9.51;28.78;102091.81;5485722;24;20054;-85
2022/03/13 17:17:26;;;;;;;10.63;8.05;;;;;;;10.39;28.40;102258.25;5069370;24;20069;-83
2022/03/13 17:19:52;;;;;;;20.58;15.25;;;;;;;10.26;28.45;102264.91;4818430;29;20042;-83
2022/03/13 17:22:18;;;;;;;18.42;13.75;;;;;;;10.15;28.39;102254.41;4825997;29;20027;-85
2022/03/13 17:24:44;;;;;;;13.48;8.93;;;;;;;10.21;28.66;102261.84;4851185;29;20030;-83
2022/03/13 17:29:45;;;;;;;9.60;5.25;;;;;;;10.08;28.30;102262.28;4876086;24;20042;-83
2022/03/13 17:32:11;;;;;;;10.27;6.22;;;;;;;9.92;28.38;102264.03;5000164;24;20131;-80
2022/03/13 17:34:36;;;;;;;23.55;20.23;;;;;;;10.00;28.68;102272.13;4816179;29;20102;-81
2022/03/13 17:37:03;;;;;;;38.70;31.65;;;;;;;9.97;28.05;102269.78;4842296;29;20053;-80
2022/03/13 17:39:28;;;;;;;12.82;8.38;;;;;;;9.99;28.19;102270.47;4814860;29;20050;-80
2022/03/13 17:41:54;;;;;;;18.02;13.95;;;;;;;9.88;28.76;102275.09;4813911;29;20034;-81
2022/03/13 17:44:20;;;;;;;27.50;20.92;;;;;;;9.77;28.29;102263.78;4841333;29;20039;-80
2022/03/13 17:46:46;;;;;;;7.50;4.55;;;;;;;9.78;28.42;102270.84;4835774;29;20060;-84
2022/03/13 17:49:12;;;;;;;11.68;8.02;;;;;;;9.77;27.24;102282.59;4841251;29;20131;-83
2022/03/13 17:54:10;;;;;;;10.27;7.03;;;;;;;9.10;27.61;102164.03;4803420;29;20039;-80
2022/03/13 17:56:44;;;;;;;12.15;6.55;;;;;;;7.82;27.80;101988.19;4811784;29;20095;-82
2022/03/13 17:59:11;;;;;;;11.27;8.07;;;;;;;7.78;27.41;101992.16;4792760;30;20031;-83
2022/03/13 18:01:37;;;;;;;10.50;7.88;;;;;;;9.61;27.39;102296.75;4798129;30;20066;-83
2022/03/13 18:04:02;;;;;;;11.75;8.48;;;;;;;9.48;28.05;102278.34;4791679;30;20039;-83
2022/03/13 18:06:33;;;;;;;9.68;7.43;;;;;;;9.50;27.36;102286.25;4797858;29;20030;-82
2022/03/13 18:08:58;;;;;;;11.95;7.70;;;;;;;9.47;27.10;102294.59;4781845;30;20020;-82
2022/03/13 18:11:24;;;;;;;7.63;5.53;;;;;;;9.45;27.56;102299.31;4805708;29;20084;-84
2022/03/13 18:13:49;;;;;;;9.82;5.68;;;;;;;9.36;26.68;102301.06;4799021;30;20028;-83
2022/03/13 18:16:16;;;;;;;6.32;4.07;;;;;;;9.36;27.60;102311.81;4775986;30;20019;-83
2022/03/13 18:29:02;;;;;;;7.60;4.05;;;;;;;7.20;26.93;102024.63;4957951;24;20066;-82
2022/03/13 18:31:29;;;;;;;6.38;3.40;;;;;;;7.55;26.41;102093.53;4954051;24;20089;-83
2022/03/13 18:33:55;;;;;;;6.43;3.42;;;;;;;8.03;26.95;102158.59;4848701;29;20034;-82
2022/03/13 18:36:21;;;;;;;6.60;3.33;;;;;;;9.06;27.22;102321.09;4831415;29;20042;-84
2022/03/13 18:41:21;;;;;;;6.68;3.65;;;;;;;7.42;26.98;102082.31;4793100;29;20102;-85
2022/03/13 18:43:47;;;;;;;6.43;4.00;;;;;;;6.97;26.57;102024.97;4794336;29;20035;-84
2022/03/13 19:42:59;;;;;;;9.48;3.20;;;;;;;7.67;26.91;102362.09;5420631;24;19953;-84
2022/03/13 19:58:24;;;;;;;6.90;2.92;;;;;;;5.95;27.02;102147.53;5785045;24;19920;-79
2022/03/13 20:00:49;;;;;;;5.00;2.90;;;;;;;7.25;26.85;102352.50;4832534;29;20019;-82
2022/03/13 20:21:22;;;;;;;4.05;2.33;;;;;;;5.54;26.96;102161.84;4931397;24;20055;-81
2022/03/13 20:23:49;;;;;;;5.53;2.83;;;;;;;6.68;27.08;102347.84;5097770;24;20037;-80
2022/03/13 20:26:15;;;;;;;4.50;2.80;;;;;;;6.75;26.98;102362.38;4821891;29;20071;-83
2022/03/13 20:28:41;;;;;;;5.00;2.53;;;;;;;6.71;26.71;102358.28;4829947;29;20035;-82
2022/03/13 20:31:07;;;;;;;6.13;2.60;;;;;;;6.90;26.87;102397.66;4797161;29;20019;-82
2022/03/13 20:33:34;;;;;;;6.45;2.58;;;;;;;6.90;26.79;102403.84;4810774;29;20034;-82
2022/03/13 20:36:00;;;;;;;5.07;2.53;;;;;;;6.85;27.10;102395.34;4827003;29;20025;-81
2022/03/13 20:38:26;;;;;;;3.97;2.22;;;;;;;6.77;26.60;102396.03;4825155;29;20098;-81
2022/03/13 20:40:51;;;;;;;4.07;2.30;;;;;;;6.83;26.78;102400.88;4804745;29;20045;-81
2022/03/13 20:43:16;;;;;;;6.13;2.22;;;;;;;6.83;26.29;102402.69;4817398;29;20071;-81
2022/03/13 20:45:44;;;;;;;3.72;2.10;;;;;;;6.67;26.43;102376.44;4821424;29;20054;-82
2022/03/13 20:48:10;;;;;;;4.47;2.20;;;;;;;6.78;26.59;102410.25;4828400;29;20026;-81
2022/03/13 20:50:35;;;;;;;3.65;2.13;;;;;;;6.77;26.69;102413.94;4813761;29;20117;-82
2022/03/13 20:53:01;;;;;;;5.15;2.40;;;;;;;6.68;26.54;102404.03;4841426;29;20034;-82
2022/03/13 20:55:26;;;;;;;4.03;2.00;;;;;;;6.64;26.80;102403.47;4834207;29;20022;-83
2022/03/13 20:57:52;;;;;;;6.95;2.45;;;;;;;6.60;27.03;102404.72;4795405;29;20106;-83
2022/03/13 21:00:23;;;;;;;5.13;2.50;;;;;;;6.51;26.60;102392.97;4813950;29;20030;-83
2022/03/13 21:02:51;;;;;;;4.22;2.33;;;;;;;4.71;26.99;102116.38;5358144;24;20066;-81
2022/03/13 21:07:52;;;;;;;4.20;2.28;;;;;;;4.38;26.63;102069.38;4865706;24;20065;-83
2022/03/13 21:10:19;;;;;;;3.35;2.05;;;;;;;5.71;27.22;102310.78;4817732;29;20031;-83
2022/03/13 21:12:48;;;;;;;3.85;1.92;;;;;;;6.50;26.90;102417.19;4808638;29;20015;-82
2022/03/13 21:15:16;;;;;;;6.25;2.35;;;;;;;6.46;26.83;102416.63;4825265;29;20011;-83
2022/03/13 21:17:43;;;;;;;3.50;2.00;;;;;;;6.39;26.76;102427.94;4797528;29;20103;-81
2022/03/13 21:20:09;;;;;;;3.00;1.98;;;;;;;6.39;26.95;102427.94;4808531;29;20070;-81
2022/03/13 21:22:36;;;;;;;3.55;2.28;;;;;;;6.18;26.93;102404.75;4821635;29;20031;-81
2022/03/13 21:40:32;;;;;;;4.30;2.17;;;;;;;6.13;27.62;102420.34;5181164;24;20065;-84
